createdAt,value
2019-04-26T00:01:06.081Z,1.10
2019-04-26T00:03:45.718Z,0.90
2019-04-26T00:06:15.190Z,0.73
2019-04-26T00:08:47.998Z,1.02
2019-04-26T00:11:45.661Z,1.03
2019-04-26T00:14:39.955Z,0.80
2019-04-26T00:17:19.397Z,1.00
2019-04-26T00:19:48.617Z,1.00
2019-04-26T00:22:18.198Z,1.10
2019-04-26T00:24:48.089Z,1.10
2019-04-26T00:27:17.111Z,1.03
2019-04-26T00:29:46.060Z,1.23
2019-04-26T00:32:15.114Z,1.23
2019-04-26T00:34:43.888Z,1.00
2019-04-26T00:37:14.069Z,0.90
2019-04-26T00:39:42.983Z,1.17
2019-04-26T00:42:13.542Z,1.27
2019-04-26T00:44:43.731Z,1.30
2019-04-26T00:47:15.153Z,1.17
2019-04-26T00:49:44.649Z,1.40
2019-04-26T00:52:15.703Z,1.30
2019-04-26T00:54:45.535Z,1.17
2019-04-26T00:57:16.005Z,1.30
2019-04-26T00:59:45.516Z,1.50
2019-04-26T01:02:20.716Z,1.67
2019-04-26T01:04:49.614Z,1.50
2019-04-26T01:07:19.104Z,1.57
2019-04-26T01:09:48.014Z,1.50
2019-04-26T01:12:17.826Z,1.73
2019-04-26T01:14:46.667Z,1.97
2019-04-26T01:17:16.164Z,1.67
2019-04-26T01:19:48.520Z,1.87
2019-04-26T01:22:23.324Z,1.90
2019-04-26T01:24:55.159Z,1.90
2019-04-26T01:27:27.741Z,1.97
2019-04-26T01:30:00.538Z,1.77
2019-04-26T01:32:31.056Z,1.97
2019-04-26T01:35:00.021Z,1.83
2019-04-26T01:37:30.946Z,1.97
2019-04-26T01:40:05.305Z,1.90
2019-04-26T01:42:43.842Z,1.67
2019-04-26T01:45:20.412Z,2.20
2019-04-26T01:47:52.608Z,2.00
2019-04-26T01:50:25.242Z,2.23
2019-04-26T01:52:56.023Z,2.20
2019-04-26T01:55:27.345Z,1.87
2019-04-26T01:57:57.488Z,2.00
2019-04-26T02:00:36.366Z,2.00
2019-04-26T02:03:14.068Z,2.50
2019-04-26T02:05:43.028Z,2.00
2019-04-26T02:08:11.957Z,1.93
2019-04-26T02:10:40.971Z,2.30
2019-04-26T02:13:09.947Z,2.23
2019-04-26T02:15:38.952Z,2.60
2019-04-26T02:18:07.960Z,3.20
2019-04-26T02:21:19.687Z,2.80
2019-04-26T02:23:57.062Z,3.70
2019-04-26T02:26:39.615Z,3.20
2019-04-26T02:29:13.138Z,3.80
2019-04-26T02:31:44.978Z,4.20
2019-04-26T02:34:15.047Z,4.70
2019-04-26T02:36:57.198Z,4.50
2019-04-26T02:39:22.133Z,4.50
2019-04-26T02:41:57.207Z,4.63
2019-04-26T02:44:37.102Z,5.00
2019-04-26T02:47:35.067Z,5.70
2019-04-26T02:50:09.485Z,5.83
2019-04-26T02:52:44.956Z,5.30
2019-04-26T02:55:31.575Z,5.07
2019-04-26T02:58:01.675Z,4.20
2019-04-26T03:00:32.152Z,5.13
2019-04-26T03:03:04.724Z,4.20
2019-04-26T03:05:37.640Z,4.80
2019-04-26T03:08:20.124Z,4.70
2019-04-26T03:11:10.258Z,4.00
2019-04-26T03:13:48.624Z,4.50
2019-04-26T03:16:37.402Z,4.77
2019-04-26T03:19:20.082Z,4.53
2019-04-26T03:22:33.180Z,5.03
2019-04-26T03:25:47.097Z,4.73
2019-04-26T03:28:28.041Z,5.37
2019-04-26T03:31:15.190Z,4.70
2019-04-26T03:34:02.525Z,4.50
2019-04-26T03:37:20.257Z,4.50
2019-04-26T03:40:09.173Z,4.20
2019-04-26T03:43:18.567Z,4.90
2019-04-26T03:46:08.611Z,4.43
2019-04-26T03:49:02.964Z,4.17
2019-04-26T03:51:55.221Z,4.47
2019-04-26T03:54:27.518Z,4.40
2019-04-26T03:57:24.615Z,4.03
2019-04-26T04:00:15.225Z,3.67
2019-04-26T04:03:26.763Z,3.33
2019-04-26T04:05:57.344Z,3.60
2019-04-26T04:08:38.387Z,2.63
2019-04-26T04:11:11.548Z,3.07
2019-04-26T04:13:53.489Z,2.70
2019-04-26T04:16:43.674Z,2.30
2019-04-26T04:19:24.792Z,2.67
2019-04-26T04:22:01.673Z,2.50
2019-04-26T04:24:48.726Z,2.37
2019-04-26T04:27:34.041Z,2.25
2019-04-26T04:30:14.693Z,2.27
2019-04-26T04:32:59.088Z,2.13
2019-04-26T04:35:30.994Z,2.50
2019-04-26T04:38:09.588Z,1.70
2019-04-26T04:41:28.344Z,2.00
2019-04-26T04:44:23.333Z,2.33
2019-04-26T04:47:25.319Z,2.00
2019-04-26T04:50:04.101Z,1.93
2019-04-26T04:52:50.082Z,2.20
2019-04-26T04:55:43.464Z,2.10
2019-04-26T04:58:17.879Z,2.00
2019-04-26T05:01:15.401Z,2.50
2019-04-26T05:03:58.811Z,2.07
2019-04-26T05:07:08.623Z,2.17
2019-04-26T05:09:49.539Z,2.27
2019-04-26T05:12:25.917Z,2.03
2019-04-26T05:15:44.568Z,2.20
2019-04-26T05:18:25.050Z,2.30
2019-04-26T05:21:05.105Z,2.80
2019-04-26T05:24:24.389Z,2.47
2019-04-26T05:27:25.899Z,2.80
2019-04-26T05:30:50.677Z,2.60
2019-04-26T05:33:36.180Z,2.80
2019-04-26T05:36:41.471Z,2.87
2019-04-26T05:39:27.391Z,2.57
2019-04-26T05:42:55.821Z,2.43
2019-04-26T05:46:08.146Z,2.90
2019-04-26T05:49:15.660Z,2.70
2019-04-26T05:52:28.509Z,3.07
2019-04-26T05:55:30.789Z,3.23
2019-04-26T05:58:21.080Z,2.87
2019-04-26T06:01:33.515Z,2.83
2019-04-26T06:04:32.951Z,3.17
2019-04-26T06:07:23.260Z,3.27
2019-04-26T06:10:29.267Z,3.27
2019-04-26T06:13:30.460Z,4.20
2019-04-26T06:16:14.877Z,3.80
2019-04-26T06:19:12.175Z,4.70
2019-04-26T06:22:08.499Z,4.00
2019-04-26T06:24:46.690Z,3.57
2019-04-26T06:27:48.127Z,4.17
2019-04-26T06:30:25.976Z,4.30
2019-04-26T06:33:34.048Z,3.70
2019-04-26T06:36:09.206Z,3.50
2019-04-26T06:39:15.752Z,3.90
2019-04-26T06:42:13.052Z,3.83
2019-04-26T06:46:09.350Z,3.90
2019-04-26T06:49:13.017Z,3.50
2019-04-26T06:51:48.331Z,3.33
2019-04-26T06:54:26.436Z,3.10
2019-04-26T06:57:31.030Z,3.90
2019-04-26T07:00:18.474Z,3.07
2019-04-26T07:03:15.837Z,2.47
2019-04-26T07:05:47.538Z,3.27
2019-04-26T07:08:57.162Z,2.47
2019-04-26T07:12:07.932Z,2.20
2019-04-26T07:15:27.732Z,2.80
2019-04-26T07:18:06.943Z,2.60
2019-04-26T07:20:49.242Z,2.67
2019-04-26T07:24:11.205Z,2.17
2019-04-26T07:27:19.519Z,2.40
2019-04-26T07:30:32.028Z,2.30
2019-04-26T07:33:44.795Z,2.43
2019-04-26T07:36:49.475Z,3.00
2019-04-26T07:39:40.634Z,2.93
2019-04-26T07:42:56.304Z,2.60
2019-04-26T07:46:02.905Z,3.17
2019-04-26T07:48:56.288Z,3.13
2019-04-26T07:52:06.502Z,3.57
2019-04-26T07:55:11.031Z,3.17
2019-04-26T07:58:20.152Z,3.10
2019-04-26T08:01:10.543Z,3.80
2019-04-26T08:03:51.909Z,2.80
2019-04-26T08:06:54.480Z,2.57
2019-04-26T08:09:27.546Z,3.20
2019-04-26T08:12:07.835Z,2.50
2019-04-26T08:15:00.286Z,3.00
2019-04-26T08:17:50.737Z,2.80
2019-04-26T08:20:35.826Z,2.60
2019-04-26T08:23:16.086Z,3.70
2019-04-26T08:25:40.992Z,2.93
2019-04-26T08:28:14.183Z,2.70
2019-04-26T08:30:48.706Z,2.80
2019-04-26T08:33:23.853Z,3.10
2019-04-26T08:35:56.343Z,2.90
2019-04-26T08:38:27.067Z,3.57
2019-04-26T08:41:00.489Z,3.30
2019-04-26T08:43:48.526Z,3.33
2019-04-26T08:46:56.958Z,3.43
2019-04-26T08:49:44.389Z,3.70
2019-04-26T08:52:16.371Z,3.00
2019-04-26T08:54:55.197Z,3.00
2019-04-26T08:57:27.975Z,3.23
2019-04-26T09:00:00.199Z,3.97
2019-04-26T09:02:49.951Z,3.40
2019-04-26T09:05:51.455Z,3.57
2019-04-26T09:08:25.184Z,4.50
2019-04-26T09:10:56.788Z,3.90
2019-04-26T09:13:28.778Z,4.60
2019-04-26T09:16:13.716Z,4.07
2019-04-26T09:18:48.035Z,3.57
2019-04-26T09:21:17.486Z,3.67
2019-04-26T09:24:15.810Z,4.30
2019-04-26T09:26:55.159Z,4.20
2019-04-26T09:29:32.136Z,4.17
2019-04-26T09:32:09.074Z,4.37
2019-04-26T09:34:41.376Z,3.33
2019-04-26T09:37:09.105Z,3.03
2019-04-26T09:39:41.606Z,3.70
2019-04-26T09:42:16.324Z,3.30
2019-04-26T09:44:58.599Z,3.20
2019-04-26T09:47:32.532Z,3.70
2019-04-26T09:50:11.357Z,4.20
2019-04-26T09:52:45.555Z,3.70
2019-04-26T09:55:14.836Z,3.73
2019-04-26T09:57:43.999Z,2.97
2019-04-26T10:00:16.125Z,3.30
2019-04-26T10:02:45.211Z,2.90
2019-04-26T10:05:17.675Z,3.07
2019-04-26T10:07:45.356Z,2.33
2019-04-26T10:10:22.640Z,2.73
2019-04-26T10:13:04.772Z,3.20
2019-04-26T10:15:58.124Z,2.98
2019-04-26T10:18:25.953Z,3.20
2019-04-26T10:20:54.891Z,2.83
2019-04-26T10:23:23.906Z,3.02
2019-04-26T10:25:53.646Z,2.70
2019-04-26T10:28:22.903Z,2.97
2019-04-26T10:30:51.892Z,2.97
2019-04-26T10:33:20.986Z,2.80
2019-04-26T10:35:52.645Z,3.10
2019-04-26T10:38:23.714Z,3.20
2019-04-26T10:40:51.332Z,2.27
2019-04-26T10:43:20.321Z,2.13
2019-04-26T10:45:53.608Z,2.40
2019-04-26T10:48:22.952Z,2.63
2019-04-26T10:50:50.740Z,2.20
2019-04-26T10:53:37.580Z,2.10
2019-04-26T10:56:31.579Z,2.50
2019-04-26T10:59:28.407Z,2.10
2019-04-26T11:01:57.479Z,2.90
2019-04-26T11:04:26.589Z,1.90
2019-04-26T11:06:58.031Z,2.47
2019-04-26T11:09:26.527Z,1.80
2019-04-26T11:11:55.538Z,2.07
2019-04-26T11:14:24.529Z,2.10
2019-04-26T11:16:53.942Z,2.47
2019-04-26T11:19:22.967Z,2.30
2019-04-26T11:21:54.826Z,2.20
2019-04-26T11:24:22.667Z,2.40
2019-04-26T11:26:51.927Z,1.83
2019-04-26T11:29:21.056Z,3.07
2019-04-26T11:31:50.094Z,2.40
2019-04-26T11:34:23.326Z,1.93
2019-04-26T11:36:49.882Z,2.30
2019-04-26T11:39:19.043Z,1.87
2019-04-26T11:41:47.976Z,1.70
2019-04-26T11:44:16.998Z,2.75
2019-04-26T11:46:46.069Z,2.10
2019-04-26T11:49:15.185Z,2.07
2019-04-26T11:51:44.286Z,1.80
2019-04-26T11:54:23.951Z,2.30
2019-04-26T11:56:52.787Z,2.00
2019-04-26T11:59:21.803Z,1.90
2019-04-26T12:01:50.846Z,2.30
2019-04-26T12:04:38.812Z,1.90
2019-04-26T12:07:19.881Z,2.10
2019-04-26T12:09:50.237Z,1.47
2019-04-26T12:12:19.266Z,1.93
2019-04-26T12:14:48.074Z,1.80
2019-04-26T12:17:16.989Z,2.23
2019-04-26T12:19:48.189Z,2.87
2019-04-26T12:22:16.679Z,2.17
2019-04-26T12:24:45.691Z,1.90
2019-04-26T12:27:14.760Z,2.40
2019-04-26T12:29:44.283Z,2.40
2019-04-26T12:32:17.104Z,2.20
2019-04-26T12:34:45.378Z,2.40
2019-04-26T12:37:19.868Z,2.80
2019-04-26T12:39:45.174Z,2.50
2019-04-26T12:42:14.976Z,2.90
2019-04-26T12:45:02.967Z,2.10
2019-04-26T12:47:41.106Z,2.60
2019-04-26T12:50:10.142Z,2.47
2019-04-26T12:52:39.097Z,2.57
2019-04-26T12:55:08.540Z,3.07
2019-04-26T12:57:40.760Z,2.40
2019-04-26T13:00:08.293Z,2.00
2019-04-26T13:02:37.238Z,2.33
2019-04-26T13:05:06.862Z,1.90
2019-04-26T13:07:39.001Z,2.03
2019-04-26T13:10:31.302Z,1.60
2019-04-26T13:13:32.976Z,2.00
2019-04-26T13:16:35.956Z,2.10
2019-04-26T13:19:04.971Z,2.77
2019-04-26T13:21:37.231Z,1.97
2019-04-26T13:24:06.205Z,1.70
2019-04-26T13:26:37.592Z,2.27
2019-04-26T13:29:07.510Z,2.00
2019-04-26T13:31:36.422Z,1.60
2019-04-26T13:34:05.450Z,1.70
2019-04-26T13:36:34.431Z,2.27
2019-04-26T13:39:05.480Z,2.07
2019-04-26T13:41:34.902Z,1.73
2019-04-26T13:44:05.899Z,1.70
2019-04-26T13:47:03.625Z,1.70
2019-04-26T13:49:38.444Z,1.60
2019-04-26T13:52:07.505Z,0.93
2019-04-26T13:54:36.480Z,1.57
2019-04-26T13:57:06.061Z,2.07
2019-04-26T13:59:36.180Z,2.00
2019-04-26T14:02:11.463Z,1.90
2019-04-26T14:04:37.271Z,2.00
2019-04-26T14:07:06.523Z,1.93
2019-04-26T14:09:35.390Z,2.13
2019-04-26T14:12:17.824Z,2.10
2019-04-26T14:14:35.701Z,1.97
2019-04-26T14:17:04.770Z,2.47
2019-04-26T14:19:33.991Z,1.97
2019-04-26T14:22:06.704Z,1.40
2019-04-26T14:24:39.227Z,1.67
2019-04-26T14:27:14.951Z,2.27
2019-04-26T14:29:42.971Z,1.90
2019-04-26T14:32:11.985Z,2.60
2019-04-26T14:34:42.017Z,1.87
2019-04-26T14:37:15.635Z,1.23
2019-04-26T14:39:50.062Z,1.70
2019-04-26T14:42:13.025Z,1.80
2019-04-26T14:44:49.244Z,2.10
2019-04-26T14:47:17.487Z,1.17
2019-04-26T14:49:43.794Z,1.53
2019-04-26T14:52:12.849Z,1.40
2019-04-26T14:54:45.945Z,1.53
2019-04-26T14:57:21.522Z,1.13
2019-04-26T14:59:56.695Z,1.50
2019-04-26T15:02:41.599Z,1.27
2019-04-26T15:05:16.810Z,1.37
2019-04-26T15:07:51.326Z,1.10
2019-04-26T15:10:18.610Z,1.30
2019-04-26T15:12:52.684Z,1.10
2019-04-26T15:15:18.274Z,1.57
2019-04-26T15:17:49.210Z,1.37
2019-04-26T15:20:20.920Z,1.47
2019-04-26T15:22:50.149Z,1.83
2019-04-26T15:25:19.142Z,2.87
2019-04-26T15:27:48.048Z,2.03
2019-04-26T15:30:17.123Z,1.60
2019-04-26T15:32:46.147Z,2.10
2019-04-26T15:35:17.504Z,1.63
2019-04-26T15:37:45.741Z,2.10
2019-04-26T15:40:31.963Z,1.67
2019-04-26T15:43:14.869Z,1.43
2019-04-26T15:45:53.422Z,1.20
2019-04-26T15:48:33.883Z,1.10
2019-04-26T15:51:02.966Z,1.30
2019-04-26T15:53:33.180Z,1.40
2019-04-26T15:56:02.587Z,1.77
2019-04-26T15:58:31.772Z,1.30
2019-04-26T16:01:02.696Z,1.23
2019-04-26T16:03:32.785Z,1.90
2019-04-26T16:06:06.998Z,1.40
2019-04-26T16:08:34.025Z,1.10
2019-04-26T16:11:03.200Z,1.13
2019-04-26T16:13:32.362Z,0.90
2019-04-26T16:16:02.078Z,1.30
2019-04-26T16:18:32.378Z,1.27
2019-04-26T16:21:01.932Z,0.70
2019-04-26T16:23:39.421Z,1.20
2019-04-26T16:26:02.801Z,1.10
2019-04-26T16:29:05.925Z,1.63
2019-04-26T16:31:46.035Z,1.13
2019-04-26T16:34:15.588Z,2.00
2019-04-26T16:36:45.383Z,2.27
2019-04-26T16:39:14.483Z,1.10
2019-04-26T16:41:43.322Z,1.57
2019-04-26T16:44:13.034Z,1.40
2019-04-26T16:46:43.895Z,1.20
2019-04-26T16:49:14.141Z,1.40
2019-04-26T16:51:43.707Z,1.97
2019-04-26T16:54:21.052Z,1.40
2019-04-26T16:56:43.971Z,1.00
2019-04-26T16:59:14.214Z,1.35
2019-04-26T17:01:47.323Z,1.57
2019-04-26T17:04:19.604Z,1.20
2019-04-26T17:06:46.363Z,1.30
2019-04-26T17:09:15.439Z,1.57
2019-04-26T17:11:44.381Z,1.50
2019-04-26T17:14:13.839Z,1.63
2019-04-26T17:16:44.457Z,1.30
2019-04-26T17:19:13.844Z,1.27
2019-04-26T17:21:49.694Z,1.47
2019-04-26T17:24:46.274Z,2.27
2019-04-26T17:27:15.489Z,1.10
2019-04-26T17:29:44.439Z,1.87
2019-04-26T17:32:17.149Z,1.30
2019-04-26T17:34:44.169Z,1.27
2019-04-26T17:37:17.344Z,1.33
2019-04-26T17:39:47.525Z,1.50
2019-04-26T17:42:14.751Z,2.73
2019-04-26T17:44:43.706Z,1.50
2019-04-26T17:47:12.637Z,1.00
2019-04-26T17:49:43.774Z,1.87
2019-04-26T17:52:12.166Z,1.60
2019-04-26T17:54:47.006Z,1.87
2019-04-26T17:57:14.328Z,1.80
2019-04-26T17:59:47.763Z,1.60
2019-04-26T18:02:31.259Z,2.40
2019-04-26T18:04:44.000Z,1.73
2019-04-26T18:07:34.679Z,2.17
2019-04-26T18:09:46.666Z,1.83
2019-04-26T18:12:14.426Z,3.17
2019-04-26T18:14:43.456Z,3.33
2019-04-26T18:17:25.051Z,3.10
2019-04-26T18:20:08.212Z,2.20
2019-04-26T18:22:45.166Z,2.25
2019-04-26T18:25:14.658Z,2.20
2019-04-26T18:27:43.854Z,2.47
2019-04-26T18:30:14.351Z,3.70
2019-04-26T18:32:47.667Z,2.37
2019-04-26T18:35:16.748Z,9.33
2019-04-26T18:37:45.177Z,2.50
2019-04-26T18:40:14.577Z,3.80
2019-04-26T18:42:43.575Z,4.00
2019-04-26T18:45:13.886Z,2.73
2019-04-26T18:47:43.755Z,2.30
2019-04-26T18:50:15.413Z,2.90
2019-04-26T18:52:56.537Z,2.53
2019-04-26T18:55:30.155Z,2.80
2019-04-26T18:58:03.446Z,4.90
2019-04-26T19:00:35.038Z,3.23
2019-04-26T19:03:04.650Z,2.83
2019-04-26T19:05:33.900Z,2.97
2019-04-26T19:08:04.956Z,4.47
2019-04-26T19:10:34.361Z,3.57
2019-04-26T19:13:13.395Z,5.73
2019-04-26T19:15:55.139Z,4.15
2019-04-26T19:18:37.909Z,3.93
2019-04-26T19:21:22.872Z,5.00
2019-04-26T19:23:53.040Z,5.30
2019-04-26T19:26:32.451Z,4.63
2019-04-26T19:28:53.198Z,6.63
2019-04-26T19:31:25.455Z,5.85
2019-04-26T19:33:55.897Z,13.17
2019-04-26T19:36:26.188Z,8.87
2019-04-26T19:38:53.858Z,7.73
2019-04-26T19:41:22.838Z,6.00
2019-04-26T19:43:53.380Z,6.33
2019-04-26T19:46:38.665Z,6.17
2019-04-26T19:49:42.807Z,5.87
2019-04-26T19:52:22.173Z,5.17
2019-04-26T19:54:55.646Z,4.83
2019-04-26T19:57:33.339Z,6.03
2019-04-26T20:00:03.704Z,5.80
2019-04-26T20:02:35.912Z,5.10
2019-04-26T20:05:06.691Z,5.60
2019-04-26T20:07:33.592Z,5.87
2019-04-26T20:10:05.034Z,4.77
2019-04-26T20:12:37.902Z,5.47
2019-04-26T20:15:04.103Z,5.10
2019-04-26T20:17:32.973Z,4.60
2019-04-26T20:20:02.129Z,3.20
2019-04-26T20:22:32.096Z,1.35
2019-04-26T20:25:02.464Z,1.20
2019-04-26T20:27:32.332Z,1.40
2019-04-26T20:30:02.356Z,0.50
2019-04-26T20:32:37.241Z,0.70
2019-04-26T20:35:13.363Z,1.10
2019-04-26T20:37:45.224Z,2.40
2019-04-26T20:40:20.105Z,2.63
2019-04-26T20:42:44.272Z,1.00
2019-04-26T20:45:16.721Z,1.07
2019-04-26T20:47:46.793Z,0.93
2019-04-26T20:50:14.724Z,1.30
2019-04-26T20:52:45.391Z,1.60
2019-04-26T20:55:15.183Z,2.13
2019-04-26T20:57:44.795Z,3.30
2019-04-26T21:00:15.272Z,3.37
2019-04-26T21:02:44.305Z,4.00
2019-04-26T21:05:14.843Z,2.70
2019-04-26T21:07:49.118Z,3.10
2019-04-26T21:10:21.708Z,2.90
2019-04-26T21:12:47.438Z,3.10
2019-04-26T21:15:20.223Z,3.07
2019-04-26T21:17:47.386Z,4.10
2019-04-26T21:20:16.266Z,3.37
2019-04-26T21:22:45.454Z,3.90
2019-04-26T21:25:27.671Z,3.63
2019-04-26T21:28:02.466Z,3.83
2019-04-26T21:30:38.588Z,3.70
2019-04-26T21:33:20.420Z,4.10
2019-04-26T21:35:57.602Z,4.30
2019-04-26T21:38:37.211Z,4.23
2019-04-26T21:41:11.697Z,5.37
2019-04-26T21:43:41.447Z,4.57
2019-04-26T21:46:14.547Z,4.17
2019-04-26T21:48:41.970Z,4.20
2019-04-26T21:51:14.495Z,7.80
2019-04-26T21:53:45.148Z,5.80
2019-04-26T21:56:14.558Z,2.50
2019-04-26T21:58:45.876Z,4.67
2019-04-26T22:01:19.299Z,5.83
2019-04-26T22:03:54.350Z,3.47
2019-04-26T22:06:20.050Z,4.87
2019-04-26T22:08:58.711Z,4.87
2019-04-26T22:11:25.575Z,3.53
2019-04-26T22:14:00.087Z,3.93
2019-04-26T22:16:38.192Z,3.13
2019-04-26T22:19:32.306Z,3.93
2019-04-26T22:22:19.563Z,3.70
2019-04-26T22:24:49.054Z,4.37
2019-04-26T22:27:21.749Z,4.20
2019-04-26T22:29:51.880Z,4.10
2019-04-26T22:32:19.378Z,6.70
2019-04-26T22:34:48.282Z,4.50
2019-04-26T22:37:29.147Z,6.80
2019-04-26T22:39:48.190Z,6.80
2019-04-26T22:42:17.802Z,4.47
2019-04-26T22:45:10.906Z,4.70
2019-04-26T22:48:01.141Z,4.07
2019-04-26T22:50:30.083Z,5.50
2019-04-26T22:52:59.060Z,4.40
2019-04-26T22:55:27.864Z,3.67
2019-04-26T22:57:56.786Z,2.70
2019-04-26T23:00:29.697Z,2.90
2019-04-26T23:03:03.647Z,3.10
2019-04-26T23:05:30.631Z,4.13
2019-04-26T23:08:01.031Z,4.37
2019-04-26T23:10:35.277Z,3.37
2019-04-26T23:13:13.312Z,3.50
2019-04-26T23:16:00.572Z,3.67
2019-04-26T23:18:50.552Z,2.10
2019-04-26T23:21:25.416Z,2.70
2019-04-26T23:23:54.337Z,3.10
2019-04-26T23:26:23.300Z,3.03
2019-04-26T23:28:53.506Z,3.90
2019-04-26T23:31:23.731Z,2.70
2019-04-26T23:33:53.916Z,1.90
2019-04-26T23:36:24.065Z,2.43
2019-04-26T23:38:53.314Z,2.10
2019-04-26T23:41:23.584Z,2.50
2019-04-26T23:43:56.813Z,1.60
2019-04-26T23:46:25.913Z,1.70
2019-04-26T23:48:53.928Z,1.80
2019-04-26T23:51:23.821Z,1.70
2019-04-26T23:53:56.345Z,2.17
2019-04-26T23:56:25.336Z,1.33
2019-04-26T23:58:54.378Z,1.30
